sensor_id;sensor_type;location;lat;lon;timestamp;pressure;altitude;pressure_sealevel;temperature;humidity
33151;BME280;19508;42.578;23.416;2023-03-26T00:00:41;93204.38;;;11.60;60.93
33151;BME280;19508;42.578;23.416;2023-03-26T00:03:11;93205.69;;;11.68;60.71
33151;BME280;19508;42.578;23.416;2023-03-26T00:05:38;93207.88;;;11.71;60.80
33151;BME280;19508;42.578;23.416;2023-03-26T00:08:04;93212.69;;;11.69;60.89
33151;BME280;19508;42.578;23.416;2023-03-26T00:10:33;93199.75;;;11.76;61.09
33151;BME280;19508;42.578;23.416;2023-03-26T00:12:58;93205.72;;;11.63;61.36
33151;BME280;19508;42.578;23.416;2023-03-26T00:15:24;93212.22;;;11.56;61.82
33151;BME280;19508;42.578;23.416;2023-03-26T00:17:49;93204.19;;;11.31;62.66
33151;BME280;19508;42.578;23.416;2023-03-26T00:20:14;93199.31;;;11.33;62.55
33151;BME280;19508;42.578;23.416;2023-03-26T00:22:40;93190.44;;;11.33;62.94
33151;BME280;19508;42.578;23.416;2023-03-26T00:25:06;93192.63;;;11.15;63.42
33151;BME280;19508;42.578;23.416;2023-03-26T00:27:32;93164.63;;;11.06;63.87
33151;BME280;19508;42.578;23.416;2023-03-26T00:29:59;93170.75;;;11.27;63.39
33151;BME280;19508;42.578;23.416;2023-03-26T00:32:26;93165.97;;;11.14;63.71
33151;BME280;19508;42.578;23.416;2023-03-26T00:34:56;93151.94;;;11.01;64.30
33151;BME280;19508;42.578;23.416;2023-03-26T00:37:22;93150.84;;;11.28;63.89
33151;BME280;19508;42.578;23.416;2023-03-26T00:39:54;93139.56;;;11.00;64.58
33151;BME280;19508;42.578;23.416;2023-03-26T00:42:24;93123.97;;;11.02;64.32
33151;BME280;19508;42.578;23.416;2023-03-26T00:44:50;93129.88;;;11.05;64.57
33151;BME280;19508;42.578;23.416;2023-03-26T00:47:19;93118.81;;;11.11;64.54
33151;BME280;19508;42.578;23.416;2023-03-26T00:49:45;93124.47;;;11.15;64.08
33151;BME280;19508;42.578;23.416;2023-03-26T00:52:13;93117.50;;;11.04;64.53
33151;BME280;19508;42.578;23.416;2023-03-26T00:54:46;93129.38;;;10.77;65.57
33151;BME280;19508;42.578;23.416;2023-03-26T00:57:12;93132.63;;;10.79;65.89
33151;BME280;19508;42.578;23.416;2023-03-26T00:59:40;93130.97;;;10.68;66.34
33151;BME280;19508;42.578;23.416;2023-03-26T01:02:08;93127.75;;;10.66;66.47
33151;BME280;19508;42.578;23.416;2023-03-26T01:04:36;93126.13;;;10.75;66.35
33151;BME280;19508;42.578;23.416;2023-03-26T01:07:16;93118.63;;;10.47;67.30
33151;BME280;19508;42.578;23.416;2023-03-26T01:09:46;93119.44;;;10.47;67.54
33151;BME280;19508;42.578;23.416;2023-03-26T01:12:17;93113.22;;;10.41;67.42
33151;BME280;19508;42.578;23.416;2023-03-26T01:14:45;93124.53;;;10.49;67.28
33151;BME280;19508;42.578;23.416;2023-03-26T01:17:12;93131.81;;;10.38;67.73
33151;BME280;19508;42.578;23.416;2023-03-26T01:19:53;93133.44;;;10.54;66.88
33151;BME280;19508;42.578;23.416;2023-03-26T01:22:24;93145.53;;;10.36;67.21
33151;BME280;19508;42.578;23.416;2023-03-26T01:24:50;93143.13;;;10.35;67.23
33151;BME280;19508;42.578;23.416;2023-03-26T01:38:01;93169.78;;;10.62;65.66
33151;BME280;19508;42.578;23.416;2023-03-26T01:40:38;93159.53;;;10.79;65.15
33151;BME280;19508;42.578;23.416;2023-03-26T01:43:42;93163.03;;;10.74;65.36
33151;BME280;19508;42.578;23.416;2023-03-26T01:46:12;93170.84;;;10.81;64.93
33151;BME280;19508;42.578;23.416;2023-03-26T01:48:43;93169.22;;;10.90;64.73
33151;BME280;19508;42.578;23.416;2023-03-26T01:51:10;93168.69;;;10.73;65.35
33151;BME280;19508;42.578;23.416;2023-03-26T01:53:41;93166.78;;;10.84;65.29
33151;BME280;19508;42.578;23.416;2023-03-26T02:04:31;93177.84;;;10.72;65.68
33151;BME280;19508;42.578;23.416;2023-03-26T02:07:06;93176.22;;;10.66;66.09
33151;BME280;19508;42.578;23.416;2023-03-26T02:09:41;93183.78;;;10.54;66.66
33151;BME280;19508;42.578;23.416;2023-03-26T02:12:11;93179.47;;;10.53;66.30
33151;BME280;19508;42.578;23.416;2023-03-26T02:14:38;93187.53;;;10.48;66.82
33151;BME280;19508;42.578;23.416;2023-03-26T02:17:03;93199.09;;;10.48;67.06
33151;BME280;19508;42.578;23.416;2023-03-26T02:19:29;93192.91;;;10.53;66.94
33151;BME280;19508;42.578;23.416;2023-03-26T02:21:54;93199.66;;;10.60;66.82
33151;BME280;19508;42.578;23.416;2023-03-26T02:24:24;93199.13;;;10.53;67.04
33151;BME280;19508;42.578;23.416;2023-03-26T02:26:49;93185.63;;;10.48;67.06
33151;BME280;19508;42.578;23.416;2023-03-26T02:29:15;93188.59;;;10.36;67.66
33151;BME280;19508;42.578;23.416;2023-03-26T02:31:45;93184.81;;;10.37;67.75
33151;BME280;19508;42.578;23.416;2023-03-26T02:34:13;93178.56;;;10.16;68.43
33151;BME280;19508;42.578;23.416;2023-03-26T02:36:38;93176.94;;;10.15;68.87
33151;BME280;19508;42.578;23.416;2023-03-26T02:39:07;93178.28;;;10.03;69.22
33151;BME280;19508;42.578;23.416;2023-03-26T02:41:33;93166.63;;;9.82;69.80
33151;BME280;19508;42.578;23.416;2023-03-26T02:43:58;93173.34;;;9.79;69.15
33151;BME280;19508;42.578;23.416;2023-03-26T02:46:23;93185.94;;;9.64;70.41
33151;BME280;19508;42.578;23.416;2023-03-26T02:48:49;93188.03;;;9.51;71.00
33151;BME280;19508;42.578;23.416;2023-03-26T02:51:14;93190.22;;;9.59;71.32
33151;BME280;19508;42.578;23.416;2023-03-26T02:53:42;93191.84;;;9.60;70.78
33151;BME280;19508;42.578;23.416;2023-03-26T02:56:08;93207.66;;;9.57;71.31
33151;BME280;19508;42.578;23.416;2023-03-26T02:58:33;93202.09;;;9.74;70.93
33151;BME280;19508;42.578;23.416;2023-03-26T03:00:58;93204.84;;;9.84;70.81
33151;BME280;19508;42.578;23.416;2023-03-26T03:03:27;93210.47;;;9.82;70.56
33151;BME280;19508;42.578;23.416;2023-03-26T03:05:53;93207.25;;;9.80;70.41
33151;BME280;19508;42.578;23.416;2023-03-26T03:08:20;93197.06;;;9.98;69.42
33151;BME280;19508;42.578;23.416;2023-03-26T03:11:06;93216.19;;;10.01;69.50
33151;BME280;19508;42.578;23.416;2023-03-26T03:13:32;93214.81;;;9.99;69.14
33151;BME280;19508;42.578;23.416;2023-03-26T03:15:57;93215.38;;;9.96;68.57
33151;BME280;19508;42.578;23.416;2023-03-26T03:18:23;93221.28;;;9.93;68.46
33151;BME280;19508;42.578;23.416;2023-03-26T03:20:48;93219.91;;;9.85;68.50
33151;BME280;19508;42.578;23.416;2023-03-26T03:23:14;93220.69;;;9.80;68.41
33151;BME280;19508;42.578;23.416;2023-03-26T03:25:40;93221.69;;;9.64;68.49
33151;BME280;19508;42.578;23.416;2023-03-26T03:28:06;93227.66;;;9.76;67.96
33151;BME280;19508;42.578;23.416;2023-03-26T03:30:31;93222.00;;;9.73;68.35
33151;BME280;19508;42.578;23.416;2023-03-26T03:32:57;93235.94;;;9.65;68.95
33151;BME280;19508;42.578;23.416;2023-03-26T03:35:23;93239.81;;;9.84;68.15
33151;BME280;19508;42.578;23.416;2023-03-26T03:37:49;93236.72;;;9.65;68.73
33151;BME280;19508;42.578;23.416;2023-03-26T03:40:14;93238.88;;;9.58;69.36
33151;BME280;19508;42.578;23.416;2023-03-26T03:42:40;93235.69;;;9.66;68.94
33151;BME280;19508;42.578;23.416;2023-03-26T03:45:06;93231.81;;;9.42;69.96
33151;BME280;19508;42.578;23.416;2023-03-26T03:47:31;93230.41;;;9.34;69.94
33151;BME280;19508;42.578;23.416;2023-03-26T03:49:56;93236.84;;;9.33;70.67
33151;BME280;19508;42.578;23.416;2023-03-26T03:52:25;93237.59;;;9.23;71.08
33151;BME280;19508;42.578;23.416;2023-03-26T03:54:51;93238.00;;;9.05;71.94
33151;BME280;19508;42.578;23.416;2023-03-26T03:57:17;93237.50;;;9.08;71.47
33151;BME280;19508;42.578;23.416;2023-03-26T03:59:43;93242.94;;;9.18;71.61
33151;BME280;19508;42.578;23.416;2023-03-26T04:02:09;93242.94;;;9.18;70.98
33151;BME280;19508;42.578;23.416;2023-03-26T04:04:35;93233.31;;;9.27;70.94
33151;BME280;19508;42.578;23.416;2023-03-26T04:07:02;93247.19;;;9.14;71.53
33151;BME280;19508;42.578;23.416;2023-03-26T04:09:28;93242.13;;;9.18;71.51
33151;BME280;19508;42.578;23.416;2023-03-26T04:11:53;93255.81;;;9.16;71.28
33151;BME280;19508;42.578;23.416;2023-03-26T04:14:18;93250.13;;;9.13;71.02
33151;BME280;19508;42.578;23.416;2023-03-26T04:16:44;93256.78;;;9.00;71.82
33151;BME280;19508;42.578;23.416;2023-03-26T04:19:09;93259.84;;;9.19;71.10
33151;BME280;19508;42.578;23.416;2023-03-26T04:21:35;93259.38;;;9.27;71.10
33151;BME280;19508;42.578;23.416;2023-03-26T04:24:03;93267.22;;;9.39;70.62
33151;BME280;19508;42.578;23.416;2023-03-26T04:26:29;93270.56;;;9.56;69.93
33151;BME280;19508;42.578;23.416;2023-03-26T04:28:58;93288.28;;;9.52;69.88
33151;BME280;19508;42.578;23.416;2023-03-26T04:31:26;93284.94;;;9.82;69.17
33151;BME280;19508;42.578;23.416;2023-03-26T04:34:24;93299.19;;;9.82;68.84
33151;BME280;19508;42.578;23.416;2023-03-26T04:36:50;93292.28;;;9.92;68.81
33151;BME280;19508;42.578;23.416;2023-03-26T04:39:19;93294.47;;;10.05;68.83
33151;BME280;19508;42.578;23.416;2023-03-26T04:41:46;93302.03;;;10.13;68.71
33151;BME280;19508;42.578;23.416;2023-03-26T04:44:12;93305.47;;;9.98;68.58
33151;BME280;19508;42.578;23.416;2023-03-26T04:46:41;93307.09;;;10.04;68.80
33151;BME280;19508;42.578;23.416;2023-03-26T04:49:08;93303.06;;;10.02;68.90
33151;BME280;19508;42.578;23.416;2023-03-26T04:51:37;93313.06;;;10.11;68.77
33151;BME280;19508;42.578;23.416;2023-03-26T04:54:09;93325.31;;;9.87;69.40
33151;BME280;19508;42.578;23.416;2023-03-26T04:56:58;93330.09;;;9.80;69.59
33151;BME280;19508;42.578;23.416;2023-03-26T04:59:30;93322.88;;;9.85;69.60
33151;BME280;19508;42.578;23.416;2023-03-26T05:02:00;93327.97;;;9.82;69.21
33151;BME280;19508;42.578;23.416;2023-03-26T05:04:26;93332.53;;;9.81;69.30
33151;BME280;19508;42.578;23.416;2023-03-26T05:06:55;93336.16;;;10.02;68.90
33151;BME280;19508;42.578;23.416;2023-03-26T05:09:26;93333.47;;;10.02;68.43
33151;BME280;19508;42.578;23.416;2023-03-26T05:11:52;93324.84;;;10.00;67.36
33151;BME280;19508;42.578;23.416;2023-03-26T05:14:18;93331.22;;;9.89;66.92
33151;BME280;19508;42.578;23.416;2023-03-26T05:16:45;93345.03;;;10.03;66.57
33151;BME280;19508;42.578;23.416;2023-03-26T05:19:11;93349.56;;;9.92;65.88
33151;BME280;19508;42.578;23.416;2023-03-26T05:21:36;93344.91;;;9.82;65.72
33151;BME280;19508;42.578;23.416;2023-03-26T05:24:02;93346.19;;;9.70;66.37
33151;BME280;19508;42.578;23.416;2023-03-26T05:26:28;93343.28;;;9.76;65.59
33151;BME280;19508;42.578;23.416;2023-03-26T05:28:54;93350.88;;;9.89;64.71
33151;BME280;19508;42.578;23.416;2023-03-26T05:31:20;93353.59;;;9.95;64.03
33151;BME280;19508;42.578;23.416;2023-03-26T05:33:46;93353.69;;;10.15;62.51
33151;BME280;19508;42.578;23.416;2023-03-26T05:36:12;93349.31;;;10.56;61.94
33151;BME280;19508;42.578;23.416;2023-03-26T05:38:38;93349.66;;;10.80;60.50
33151;BME280;19508;42.578;23.416;2023-03-26T05:41:06;93355.09;;;11.21;59.46
33151;BME280;19508;42.578;23.416;2023-03-26T05:43:32;93344.88;;;11.64;58.36
33151;BME280;19508;42.578;23.416;2023-03-26T05:45:58;93349.94;;;11.96;56.87
33151;BME280;19508;42.578;23.416;2023-03-26T05:48:24;93355.75;;;12.43;56.04
33151;BME280;19508;42.578;23.416;2023-03-26T05:50:52;93363.59;;;12.45;55.20
33151;BME280;19508;42.578;23.416;2023-03-26T05:53:19;93355.44;;;12.60;55.17
33151;BME280;19508;42.578;23.416;2023-03-26T05:55:45;93355.28;;;12.91;54.11
33151;BME280;19508;42.578;23.416;2023-03-26T05:58:12;93367.53;;;13.62;53.22
33151;BME280;19508;42.578;23.416;2023-03-26T06:00:37;93354.63;;;14.11;51.72
33151;BME280;19508;42.578;23.416;2023-03-26T06:03:04;93357.53;;;14.20;50.05
33151;BME280;19508;42.578;23.416;2023-03-26T06:05:36;93335.66;;;14.35;49.98
33151;BME280;19508;42.578;23.416;2023-03-26T06:08:03;93338.31;;;14.46;49.45
33151;BME280;19508;42.578;23.416;2023-03-26T06:10:28;93346.03;;;15.00;48.46
33151;BME280;19508;42.578;23.416;2023-03-26T06:12:54;93331.31;;;14.39;49.62
33151;BME280;19508;42.578;23.416;2023-03-26T06:15:20;93345.47;;;14.31;51.68
33151;BME280;19508;42.578;23.416;2023-03-26T06:17:46;93350.59;;;14.33;49.15
33151;BME280;19508;42.578;23.416;2023-03-26T06:20:12;93337.88;;;14.33;50.86
33151;BME280;19508;42.578;23.416;2023-03-26T06:22:37;93339.13;;;14.17;50.46
33151;BME280;19508;42.578;23.416;2023-03-26T06:25:03;93332.34;;;14.44;49.38
33151;BME280;19508;42.578;23.416;2023-03-26T06:27:28;93333.91;;;14.50;48.36
33151;BME280;19508;42.578;23.416;2023-03-26T06:29:54;93342.19;;;14.34;48.43
33151;BME280;19508;42.578;23.416;2023-03-26T06:32:19;93331.66;;;14.57;47.77
33151;BME280;19508;42.578;23.416;2023-03-26T06:34:45;93339.66;;;14.19;48.48
33151;BME280;19508;42.578;23.416;2023-03-26T06:37:10;93334.38;;;14.57;47.86
33151;BME280;19508;42.578;23.416;2023-03-26T06:39:36;93326.13;;;14.67;48.28
33151;BME280;19508;42.578;23.416;2023-03-26T06:42:01;93334.13;;;14.29;48.01
33151;BME280;19508;42.578;23.416;2023-03-26T06:44:26;93333.38;;;14.53;48.12
33151;BME280;19508;42.578;23.416;2023-03-26T06:46:52;93337.38;;;14.55;47.82
33151;BME280;19508;42.578;23.416;2023-03-26T06:49:17;93335.75;;;14.30;48.14
33151;BME280;19508;42.578;23.416;2023-03-26T06:51:42;93341.81;;;14.70;47.58
33151;BME280;19508;42.578;23.416;2023-03-26T06:54:08;93339.66;;;14.67;47.38
33151;BME280;19508;42.578;23.416;2023-03-26T06:56:34;93346.97;;;14.90;47.80
33151;BME280;19508;42.578;23.416;2023-03-26T06:58:59;93344.13;;;15.19;46.07
33151;BME280;19508;42.578;23.416;2023-03-26T07:01:25;93345.22;;;15.00;45.75
33151;BME280;19508;42.578;23.416;2023-03-26T07:03:50;93349.47;;;15.06;46.80
33151;BME280;19508;42.578;23.416;2023-03-26T07:06:15;93351.47;;;14.76;46.43
33151;BME280;19508;42.578;23.416;2023-03-26T07:08:41;93357.00;;;15.09;47.64
33151;BME280;19508;42.578;23.416;2023-03-26T07:11:07;93366.56;;;15.63;45.31
33151;BME280;19508;42.578;23.416;2023-03-26T07:13:32;93366.38;;;15.54;45.05
33151;BME280;19508;42.578;23.416;2023-03-26T07:15:57;93359.00;;;16.25;43.67
33151;BME280;19508;42.578;23.416;2023-03-26T07:18:23;93359.81;;;16.25;44.62
33151;BME280;19508;42.578;23.416;2023-03-26T07:20:49;93357.56;;;16.14;42.67
33151;BME280;19508;42.578;23.416;2023-03-26T07:23:15;93360.47;;;16.03;43.52
33151;BME280;19508;42.578;23.416;2023-03-26T07:25:45;93363.09;;;16.69;41.78
33151;BME280;19508;42.578;23.416;2023-03-26T07:28:33;93350.59;;;16.68;41.14
33151;BME280;19508;42.578;23.416;2023-03-26T07:31:23;93356.50;;;16.42;41.20
33151;BME280;19508;42.578;23.416;2023-03-26T07:36:38;93348.56;;;16.73;40.42
33151;BME280;19508;42.578;23.416;2023-03-26T07:41:51;93340.78;;;17.22;41.32
33151;BME280;19508;42.578;23.416;2023-03-26T07:47:16;93339.50;;;17.78;39.35
33151;BME280;19508;42.578;23.416;2023-03-26T07:49:46;93346.69;;;17.73;39.45
33151;BME280;19508;42.578;23.416;2023-03-26T07:52:12;93339.47;;;17.55;40.89
33151;BME280;19508;42.578;23.416;2023-03-26T07:54:37;93341.44;;;18.30;37.78
33151;BME280;19508;42.578;23.416;2023-03-26T07:57:15;93339.84;;;18.29;37.68
33151;BME280;19508;42.578;23.416;2023-03-26T08:13:23;93327.72;;;17.91;38.20
33151;BME280;19508;42.578;23.416;2023-03-26T08:21:09;93338.47;;;18.49;34.93
33151;BME280;19508;42.578;23.416;2023-03-26T08:23:51;93337.13;;;18.69;35.10
33151;BME280;19508;42.578;23.416;2023-03-26T08:29:03;93334.06;;;17.78;35.56
33151;BME280;19508;42.578;23.416;2023-03-26T08:31:34;93337.44;;;17.83;34.59
33151;BME280;19508;42.578;23.416;2023-03-26T08:34:00;93344.19;;;18.39;34.36
33151;BME280;19508;42.578;23.416;2023-03-26T08:36:25;93330.66;;;19.13;34.07
33151;BME280;19508;42.578;23.416;2023-03-26T08:38:52;93332.31;;;18.66;34.60
33151;BME280;19508;42.578;23.416;2023-03-26T08:42:00;93330.78;;;18.82;33.55
33151;BME280;19508;42.578;23.416;2023-03-26T08:55:39;93326.78;;;18.88;32.26
33151;BME280;19508;42.578;23.416;2023-03-26T08:58:22;93336.97;;;20.18;30.59
33151;BME280;19508;42.578;23.416;2023-03-26T09:09:51;93326.81;;;20.44;27.23
33151;BME280;19508;42.578;23.416;2023-03-26T09:18:53;93337.16;;;20.04;29.42
33151;BME280;19508;42.578;23.416;2023-03-26T09:49:11;93311.91;;;20.71;25.12
33151;BME280;19508;42.578;23.416;2023-03-26T10:05:42;93300.00;;;20.20;26.89
33151;BME280;19508;42.578;23.416;2023-03-26T10:19:53;93291.81;;;21.89;26.25
33151;BME280;19508;42.578;23.416;2023-03-26T10:33:25;93252.94;;;22.77;22.97
33151;BME280;19508;42.578;23.416;2023-03-26T10:39:09;93241.94;;;23.14;23.25
33151;BME280;19508;42.578;23.416;2023-03-26T10:41:59;93234.88;;;22.89;23.26
33151;BME280;19508;42.578;23.416;2023-03-26T10:55:21;93221.47;;;22.63;21.86
33151;BME280;19508;42.578;23.416;2023-03-26T10:57:54;93228.00;;;22.34;23.59
33151;BME280;19508;42.578;23.416;2023-03-26T11:00:24;93229.13;;;21.54;24.71
33151;BME280;19508;42.578;23.416;2023-03-26T11:08:27;93219.09;;;22.49;22.75
33151;BME280;19508;42.578;23.416;2023-03-26T11:32:51;93198.75;;;22.50;21.58
33151;BME280;19508;42.578;23.416;2023-03-26T11:35:30;93191.38;;;23.15;20.83
33151;BME280;19508;42.578;23.416;2023-03-26T11:38:03;93187.53;;;23.72;19.78
33151;BME280;19508;42.578;23.416;2023-03-26T11:40:41;93185.00;;;24.55;17.91
33151;BME280;19508;42.578;23.416;2023-03-26T11:43:11;93194.22;;;25.68;17.83
33151;BME280;19508;42.578;23.416;2023-03-26T11:45:40;93179.88;;;25.39;17.93
33151;BME280;19508;42.578;23.416;2023-03-26T11:48:22;93181.50;;;25.24;17.10
33151;BME280;19508;42.578;23.416;2023-03-26T11:50:54;93163.91;;;25.68;17.95
33151;BME280;19508;42.578;23.416;2023-03-26T11:53:26;93150.25;;;25.94;18.06
33151;BME280;19508;42.578;23.416;2023-03-26T11:56:10;93145.63;;;26.93;16.88
33151;BME280;19508;42.578;23.416;2023-03-26T11:58:48;93133.88;;;26.47;16.68
33151;BME280;19508;42.578;23.416;2023-03-26T12:01:19;93132.38;;;26.07;17.00
33151;BME280;19508;42.578;23.416;2023-03-26T12:04:03;93122.56;;;26.33;16.82
33151;BME280;19508;42.578;23.416;2023-03-26T12:06:29;93110.53;;;26.67;17.13
33151;BME280;19508;42.578;23.416;2023-03-26T12:08:57;93105.78;;;26.19;16.40
33151;BME280;19508;42.578;23.416;2023-03-26T12:11:25;93108.59;;;26.45;16.28
33151;BME280;19508;42.578;23.416;2023-03-26T12:14:03;93101.63;;;27.04;17.73
33151;BME280;19508;42.578;23.416;2023-03-26T12:16:29;93095.94;;;27.23;16.05
33151;BME280;19508;42.578;23.416;2023-03-26T12:19:04;93107.78;;;27.88;16.09
33151;BME280;19508;42.578;23.416;2023-03-26T12:21:46;93103.66;;;25.47;18.58
33151;BME280;19508;42.578;23.416;2023-03-26T12:24:27;93085.22;;;27.18;17.05
33151;BME280;19508;42.578;23.416;2023-03-26T12:29:50;93082.03;;;27.16;17.47
33151;BME280;19508;42.578;23.416;2023-03-26T12:32:16;93072.06;;;27.42;16.34
33151;BME280;19508;42.578;23.416;2023-03-26T12:34:42;93070.19;;;27.83;17.48
33151;BME280;19508;42.578;23.416;2023-03-26T12:37:46;93060.09;;;27.31;17.06
33151;BME280;19508;42.578;23.416;2023-03-26T12:42:56;93059.25;;;27.97;16.41
33151;BME280;19508;42.578;23.416;2023-03-26T12:45:28;93059.56;;;29.57;15.22
33151;BME280;19508;42.578;23.416;2023-03-26T12:47:55;93044.50;;;29.65;14.73
33151;BME280;19508;42.578;23.416;2023-03-26T12:50:27;93049.41;;;28.99;15.46
33151;BME280;19508;42.578;23.416;2023-03-26T12:53:01;93047.97;;;28.68;15.48
33151;BME280;19508;42.578;23.416;2023-03-26T12:56:17;93032.13;;;29.34;14.97
33151;BME280;19508;42.578;23.416;2023-03-26T13:04:18;93033.25;;;29.19;14.62
33151;BME280;19508;42.578;23.416;2023-03-26T13:06:56;93029.31;;;26.68;14.66
33151;BME280;19508;42.578;23.416;2023-03-26T13:09:45;93041.34;;;26.57;15.60
33151;BME280;19508;42.578;23.416;2023-03-26T13:25:26;93022.34;;;24.60;16.53
33151;BME280;19508;42.578;23.416;2023-03-26T13:36:30;93020.81;;;23.60;18.29
33151;BME280;19508;42.578;23.416;2023-03-26T13:39:22;93022.44;;;23.05;18.37
33151;BME280;19508;42.578;23.416;2023-03-26T13:48:11;93046.19;;;20.61;17.89
33151;BME280;19508;42.578;23.416;2023-03-26T13:50:42;93039.31;;;20.54;19.09
33151;BME280;19508;42.578;23.416;2023-03-26T13:53:16;93035.06;;;20.15;18.91
33151;BME280;19508;42.578;23.416;2023-03-26T13:55:56;93035.44;;;20.55;19.81
33151;BME280;19508;42.578;23.416;2023-03-26T14:01:19;93024.34;;;20.31;19.97
33151;BME280;19508;42.578;23.416;2023-03-26T14:03:59;93021.28;;;20.12;20.18
33151;BME280;19508;42.578;23.416;2023-03-26T14:15:00;93004.75;;;21.37;18.89
33151;BME280;19508;42.578;23.416;2023-03-26T14:17:44;92999.47;;;21.44;18.90
33151;BME280;19508;42.578;23.416;2023-03-26T14:34:20;93009.97;;;22.28;18.69
33151;BME280;19508;42.578;23.416;2023-03-26T14:51:16;92985.22;;;22.12;19.01
33151;BME280;19508;42.578;23.416;2023-03-26T14:53:52;92983.72;;;22.02;19.50
33151;BME280;19508;42.578;23.416;2023-03-26T14:59:04;92990.72;;;23.83;17.73
33151;BME280;19508;42.578;23.416;2023-03-26T15:07:28;92984.88;;;24.71;17.98
33151;BME280;19508;42.578;23.416;2023-03-26T15:13:10;92986.97;;;23.28;19.57
33151;BME280;19508;42.578;23.416;2023-03-26T15:18:48;92986.31;;;22.75;20.25
33151;BME280;19508;42.578;23.416;2023-03-26T15:29:56;92991.94;;;20.21;22.45
33151;BME280;19508;42.578;23.416;2023-03-26T15:52:34;92995.19;;;19.26;22.62
33151;BME280;19508;42.578;23.416;2023-03-26T15:59:59;93010.88;;;17.38;24.60
33151;BME280;19508;42.578;23.416;2023-03-26T16:02:37;93010.91;;;17.07;25.60
33151;BME280;19508;42.578;23.416;2023-03-26T16:05:42;93008.84;;;16.82;25.73
33151;BME280;19508;42.578;23.416;2023-03-26T16:11:02;93005.91;;;16.25;26.24
33151;BME280;19508;42.578;23.416;2023-03-26T16:13:42;93017.13;;;16.10;27.02
33151;BME280;19508;42.578;23.416;2023-03-26T16:18:40;93023.66;;;15.72;27.96
33151;BME280;19508;42.578;23.416;2023-03-26T16:33:37;93026.81;;;14.78;31.12
33151;BME280;19508;42.578;23.416;2023-03-26T16:41:30;93034.31;;;14.16;33.15
33151;BME280;19508;42.578;23.416;2023-03-26T16:49:53;93047.72;;;13.70;34.10
33151;BME280;19508;42.578;23.416;2023-03-26T16:52:31;93048.34;;;13.62;34.17
33151;BME280;19508;42.578;23.416;2023-03-26T16:55:19;93053.00;;;13.56;34.06
33151;BME280;19508;42.578;23.416;2023-03-26T16:57:53;93047.75;;;13.46;34.33
33151;BME280;19508;42.578;23.416;2023-03-26T17:06:25;93054.66;;;13.33;35.00
33151;BME280;19508;42.578;23.416;2023-03-26T17:09:01;93053.63;;;13.29;35.63
33151;BME280;19508;42.578;23.416;2023-03-26T17:11:41;93060.88;;;13.34;35.32
33151;BME280;19508;42.578;23.416;2023-03-26T17:15:06;93062.66;;;13.19;36.26
33151;BME280;19508;42.578;23.416;2023-03-26T17:29:08;93072.94;;;12.59;38.49
33151;BME280;19508;42.578;23.416;2023-03-26T17:31:42;93079.00;;;12.46;39.00
33151;BME280;19508;42.578;23.416;2023-03-26T17:42:35;93070.00;;;12.22;40.90
33151;BME280;19508;42.578;23.416;2023-03-26T17:45:21;93068.97;;;12.18;41.45
33151;BME280;19508;42.578;23.416;2023-03-26T17:48:18;93073.94;;;12.05;41.19
33151;BME280;19508;42.578;23.416;2023-03-26T17:51:02;93072.06;;;12.01;41.70
33151;BME280;19508;42.578;23.416;2023-03-26T17:53:33;93075.53;;;11.57;42.90
33151;BME280;19508;42.578;23.416;2023-03-26T17:56:06;93067.66;;;11.61;42.04
33151;BME280;19508;42.578;23.416;2023-03-26T17:58:43;93071.94;;;11.72;42.15
33151;BME280;19508;42.578;23.416;2023-03-26T18:01:28;93076.03;;;11.59;42.79
33151;BME280;19508;42.578;23.416;2023-03-26T18:04:02;93068.81;;;11.49;43.04
33151;BME280;19508;42.578;23.416;2023-03-26T18:17:04;93060.84;;;11.19;43.03
33151;BME280;19508;42.578;23.416;2023-03-26T18:19:45;93059.56;;;11.11;43.90
33151;BME280;19508;42.578;23.416;2023-03-26T18:22:17;93054.72;;;10.98;44.58
33151;BME280;19508;42.578;23.416;2023-03-26T18:24:44;93060.69;;;10.95;44.11
33151;BME280;19508;42.578;23.416;2023-03-26T18:27:15;93060.94;;;10.98;44.91
33151;BME280;19508;42.578;23.416;2023-03-26T18:29:45;93056.63;;;10.92;45.13
33151;BME280;19508;42.578;23.416;2023-03-26T18:34:38;93057.50;;;10.62;45.58
33151;BME280;19508;42.578;23.416;2023-03-26T18:39:43;93043.25;;;10.62;45.25
33151;BME280;19508;42.578;23.416;2023-03-26T18:42:19;93041.09;;;10.49;45.03
33151;BME280;19508;42.578;23.416;2023-03-26T18:44:48;93040.03;;;10.50;45.49
33151;BME280;19508;42.578;23.416;2023-03-26T18:47:15;93030.91;;;10.45;45.96
33151;BME280;19508;42.578;23.416;2023-03-26T18:49:42;93027.69;;;10.43;46.56
33151;BME280;19508;42.578;23.416;2023-03-26T18:52:13;93019.88;;;10.37;47.15
33151;BME280;19508;42.578;23.416;2023-03-26T18:54:41;93015.56;;;10.21;47.47
33151;BME280;19508;42.578;23.416;2023-03-26T18:57:10;93020.69;;;10.22;47.31
33151;BME280;19508;42.578;23.416;2023-03-26T18:59:36;93012.88;;;10.00;47.96
33151;BME280;19508;42.578;23.416;2023-03-26T19:02:10;93007.22;;;10.07;47.77
33151;BME280;19508;42.578;23.416;2023-03-26T19:04:37;93013.16;;;9.94;47.74
33151;BME280;19508;42.578;23.416;2023-03-26T19:07:05;93014.22;;;9.93;47.95
33151;BME280;19508;42.578;23.416;2023-03-26T19:09:32;93005.34;;;9.87;47.98
33151;BME280;19508;42.578;23.416;2023-03-26T19:12:06;93008.31;;;9.85;48.06
33151;BME280;19508;42.578;23.416;2023-03-26T19:14:32;92997.56;;;9.75;48.81
33151;BME280;19508;42.578;23.416;2023-03-26T19:17:02;92994.56;;;9.72;48.85
33151;BME280;19508;42.578;23.416;2023-03-26T19:19:35;92992.69;;;9.62;48.74
33151;BME280;19508;42.578;23.416;2023-03-26T19:22:03;93000.22;;;9.60;48.92
33151;BME280;19508;42.578;23.416;2023-03-26T19:24:29;92985.16;;;9.49;49.54
33151;BME280;19508;42.578;23.416;2023-03-26T19:26:55;92984.06;;;9.45;49.52
33151;BME280;19508;42.578;23.416;2023-03-26T19:29:24;92992.09;;;9.29;49.81